ASA66 PACV-PAYA
Flight info
| Callsign | ASA66 |
|---|---|
| Flight time | 1h 5m |
| Altitude | 25000 |
| Route | FORAT MALAS V319 YAK |
| Aircraft | B737/M-SDE2E3FGHIRWXY/LB1 |
Departure
| Time | 2026-04-20 17:41 |
|---|---|
| Airport | Merle K (Mudhole) Smith Airport (PACV) |
Arrival
| Time | 2026-04-20 18:47 |
|---|---|
| Airport | Yakutat Airport (PAYA) |
| Time | Latitude | Longitude | Altitude | Speed | Heading |
|---|---|---|---|---|---|
| 2026-04-20 17:17 | 60.49419 | -145.47266 | 53 ft | 0 kts | 123° |
| 2026-04-20 17:36 | 60.49414 | -145.47254 | 53 ft | 3 kts | 128° |
| 2026-04-20 17:37 | 60.49378 | -145.47226 | 48 ft | 8 kts | 167° |
| 2026-04-20 17:37 | 60.49336 | -145.47158 | 51 ft | 8 kts | 114° |
| 2026-04-20 17:37 | 60.49313 | -145.47054 | 53 ft | 8 kts | 114° |
| 2026-04-20 17:37 | 60.49281 | -145.46972 | 53 ft | 8 kts | 169° |
| 2026-04-20 17:38 | 60.49233 | -145.47004 | 48 ft | 7 kts | 204° |
| 2026-04-20 17:38 | 60.49187 | -145.47047 | 51 ft | 8 kts | 204° |
| 2026-04-20 17:38 | 60.49123 | -145.47094 | 53 ft | 11 kts | 179° |
| 2026-04-20 17:38 | 60.49076 | -145.46979 | 55 ft | 11 kts | 113° |
| 2026-04-20 17:39 | 60.49040 | -145.46817 | 49 ft | 16 kts | 114° |
| 2026-04-20 17:39 | 60.48988 | -145.46577 | 50 ft | 20 kts | 114° |
| 2026-04-20 17:39 | 60.48931 | -145.46324 | 54 ft | 19 kts | 115° |
| 2026-04-20 17:39 | 60.48880 | -145.46081 | 52 ft | 14 kts | 101° |
| 2026-04-20 17:40 | 60.48891 | -145.45923 | 53 ft | 9 kts | 97° |
| 2026-04-20 17:40 | 60.48849 | -145.45914 | 47 ft | 8 kts | 249° |
| 2026-04-20 17:40 | 60.48863 | -145.46019 | 53 ft | 10 kts | 294° |
| 2026-04-20 17:40 | 60.48959 | -145.46453 | 51 ft | 72 kts | 294° |
| 2026-04-20 17:41 | 60.49275 | -145.47879 | 55 ft | 147 kts | 294° |
| 2026-04-20 17:41 | 60.49736 | -145.49978 | 564 ft | 168 kts | 293° |
| 2026-04-20 17:41 | 60.50191 | -145.52087 | 1626 ft | 158 kts | 292° |
| 2026-04-20 17:41 | 60.50591 | -145.54147 | 2733 ft | 160 kts | 288° |
| 2026-04-20 17:42 | 60.50970 | -145.56417 | 3267 ft | 179 kts | 285° |
| 2026-04-20 17:42 | 60.51271 | -145.58850 | 4455 ft | 182 kts | 278° |
| 2026-04-20 17:42 | 60.51075 | -145.61491 | 4906 ft | 208 kts | 238° |
| 2026-04-20 17:42 | 60.49896 | -145.63395 | 5376 ft | 230 kts | 202° |
| 2026-04-20 17:43 | 60.48333 | -145.64457 | 6069 ft | 248 kts | 197° |
| 2026-04-20 17:43 | 60.46572 | -145.64488 | 6871 ft | 265 kts | 163° |
| 2026-04-20 17:43 | 60.45042 | -145.62341 | 7889 ft | 278 kts | 130° |
| 2026-04-20 17:43 | 60.44176 | -145.58756 | 8844 ft | 290 kts | 112° |
| 2026-04-20 17:44 | 60.43517 | -145.54840 | 9770 ft | 298 kts | 110° |
| 2026-04-20 17:44 | 60.42871 | -145.50842 | 10483 ft | 311 kts | 110° |
| 2026-04-20 17:44 | 60.42170 | -145.46531 | 10852 ft | 329 kts | 110° |
| 2026-04-20 17:44 | 60.41473 | -145.42259 | 10886 ft | 312 kts | 110° |
| 2026-04-20 17:45 | 60.40792 | -145.38100 | 10429 ft | 313 kts | 110° |
| 2026-04-20 17:45 | 60.40060 | -145.33870 | 9754 ft | 320 kts | 115° |
| 2026-04-20 17:45 | 60.39177 | -145.29982 | 9845 ft | 290 kts | 123° |
| 2026-04-20 17:45 | 60.38072 | -145.26723 | 9819 ft | 275 kts | 129° |
| 2026-04-20 17:46 | 60.36987 | -145.23638 | 9519 ft | 273 kts | 127° |
| 2026-04-20 17:46 | 60.35969 | -145.20502 | 9475 ft | 260 kts | 126° |
| 2026-04-20 17:46 | 60.35021 | -145.17504 | 9304 ft | 248 kts | 126° |
| 2026-04-20 17:46 | 60.34105 | -145.14591 | 8907 ft | 244 kts | 126° |
| 2026-04-20 17:47 | 60.33086 | -145.11909 | 8412 ft | 238 kts | 143° |
| 2026-04-20 17:47 | 60.31793 | -145.09853 | 7952 ft | 235 kts | 146° |
| 2026-04-20 17:47 | 60.30511 | -145.07833 | 7511 ft | 233 kts | 146° |
| 2026-04-20 17:47 | 60.29256 | -145.05857 | 7052 ft | 232 kts | 146° |
| 2026-04-20 17:48 | 60.28180 | -145.03433 | 6532 ft | 240 kts | 116° |
| 2026-04-20 17:48 | 60.28028 | -145.00121 | 6066 ft | 242 kts | 75° |
| 2026-04-20 17:48 | 60.28912 | -144.97358 | 5596 ft | 235 kts | 33° |
| 2026-04-20 17:48 | 60.30399 | -144.96366 | 5139 ft | 224 kts | 352° |
| 2026-04-20 17:49 | 60.31779 | -144.97443 | 4841 ft | 211 kts | 322° |
| 2026-04-20 17:49 | 60.32997 | -144.99109 | 4552 ft | 212 kts | 322° |
| 2026-04-20 17:49 | 60.34084 | -145.01090 | 4366 ft | 213 kts | 311° |
| 2026-04-20 17:49 | 60.35117 | -145.03296 | 4194 ft | 219 kts | 311° |
| 2026-04-20 17:50 | 60.36157 | -145.05536 | 3989 ft | 223 kts | 311° |
| 2026-04-20 17:50 | 60.37216 | -145.07828 | 3771 ft | 223 kts | 311° |
| 2026-04-20 17:50 | 60.38268 | -145.10116 | 3567 ft | 222 kts | 311° |
| 2026-04-20 17:50 | 60.39316 | -145.12403 | 3345 ft | 222 kts | 311° |
| 2026-04-20 17:51 | 60.40358 | -145.14686 | 3129 ft | 220 kts | 311° |
| 2026-04-20 17:51 | 60.41387 | -145.16957 | 2915 ft | 218 kts | 311° |
| 2026-04-20 17:51 | 60.42422 | -145.19242 | 2826 ft | 221 kts | 311° |
| 2026-04-20 17:51 | 60.43414 | -145.21625 | 2721 ft | 222 kts | 301° |
| 2026-04-20 17:52 | 60.44112 | -145.24359 | 2451 ft | 222 kts | 292° |
| 2026-04-20 17:52 | 60.44712 | -145.27184 | 2084 ft | 213 kts | 292° |
| 2026-04-20 17:52 | 60.45285 | -145.29823 | 1756 ft | 196 kts | 293° |
| 2026-04-20 17:52 | 60.45818 | -145.32241 | 1506 ft | 180 kts | 293° |
| 2026-04-20 17:53 | 60.46306 | -145.34456 | 1276 ft | 165 kts | 293° |
| 2026-04-20 17:53 | 60.46748 | -145.36462 | 1106 ft | 147 kts | 292° |
| 2026-04-20 17:53 | 60.47145 | -145.38302 | 904 ft | 138 kts | 292° |
| 2026-04-20 17:53 | 60.47538 | -145.40078 | 718 ft | 138 kts | 293° |
| 2026-04-20 17:54 | 60.47932 | -145.41861 | 548 ft | 138 kts | 294° |
| 2026-04-20 17:54 | 60.48323 | -145.43630 | 374 ft | 136 kts | 294° |
| 2026-04-20 17:54 | 60.48712 | -145.45355 | 165 ft | 137 kts | 294° |
| 2026-04-20 17:54 | 60.49096 | -145.47064 | 53 ft | 122 kts | 293° |
| 2026-04-20 17:55 | 60.49379 | -145.48353 | 52 ft | 78 kts | 294° |
| 2026-04-20 17:55 | 60.49540 | -145.49084 | 54 ft | 38 kts | 295° |
| 2026-04-20 17:55 | 60.49629 | -145.49478 | 55 ft | 25 kts | 294° |
| 2026-04-20 17:55 | 60.49648 | -145.49660 | 52 ft | 9 kts | 215° |
| 2026-04-20 17:56 | 60.49622 | -145.49581 | 54 ft | 9 kts | 75° |
| 2026-04-20 17:56 | 60.49627 | -145.49530 | 55 ft | 0 kts | 84° |
| 2026-04-20 17:56 | 60.49627 | -145.49493 | 48 ft | 7 kts | 94° |
| 2026-04-20 17:57 | 60.49599 | -145.49351 | 55 ft | 13 kts | 115° |
| 2026-04-20 17:57 | 60.49558 | -145.49170 | 54 ft | 14 kts | 115° |
| 2026-04-20 17:57 | 60.49518 | -145.48994 | 46 ft | 13 kts | 115° |
| 2026-04-20 17:57 | 60.49480 | -145.48825 | 47 ft | 13 kts | 115° |
| 2026-04-20 17:58 | 60.49443 | -145.48662 | 47 ft | 13 kts | 115° |
| 2026-04-20 17:58 | 60.49401 | -145.48476 | 47 ft | 16 kts | 115° |
| 2026-04-20 17:58 | 60.49352 | -145.48261 | 48 ft | 17 kts | 115° |
| 2026-04-20 17:58 | 60.49305 | -145.48048 | 47 ft | 16 kts | 112° |
| 2026-04-20 17:59 | 60.49263 | -145.47838 | 51 ft | 16 kts | 112° |
| 2026-04-20 17:59 | 60.49222 | -145.47635 | 51 ft | 15 kts | 112° |
| 2026-04-20 17:59 | 60.49234 | -145.47537 | 52 ft | 7 kts | 14° |
| 2026-04-20 17:59 | 60.49282 | -145.47511 | 50 ft | 7 kts | 14° |
| 2026-04-20 18:00 | 60.49327 | -145.47471 | 51 ft | 7 kts | 27° |
| 2026-04-20 18:00 | 60.49370 | -145.47427 | 48 ft | 7 kts | 26° |
| 2026-04-20 18:00 | 60.49392 | -145.47353 | 53 ft | 7 kts | 100° |
| 2026-04-20 18:00 | 60.49384 | -145.47312 | 53 ft | 0 kts | 112° |
| 2026-04-20 18:02 | 60.49374 | -145.47265 | 50 ft | 9 kts | 112° |
| 2026-04-20 18:02 | 60.49342 | -145.47141 | 48 ft | 10 kts | 134° |
| 2026-04-20 18:02 | 60.49305 | -145.47022 | 50 ft | 10 kts | 114° |
| 2026-04-20 18:02 | 60.49253 | -145.46987 | 53 ft | 9 kts | 198° |
| 2026-04-20 18:03 | 60.49198 | -145.47037 | 51 ft | 9 kts | 205° |
| 2026-04-20 18:03 | 60.49144 | -145.47087 | 53 ft | 8 kts | 205° |
| 2026-04-20 18:03 | 60.49095 | -145.47054 | 54 ft | 8 kts | 125° |
| 2026-04-20 18:03 | 60.49067 | -145.46929 | 52 ft | 13 kts | 114° |
| 2026-04-20 18:04 | 60.49019 | -145.46714 | 54 ft | 18 kts | 114° |
| 2026-04-20 18:04 | 60.48968 | -145.46484 | 54 ft | 18 kts | 114° |
| 2026-04-20 18:04 | 60.48918 | -145.46261 | 49 ft | 17 kts | 114° |
| 2026-04-20 18:04 | 60.48879 | -145.46047 | 52 ft | 13 kts | 94° |
| 2026-04-20 18:05 | 60.48848 | -145.45934 | 50 ft | 7 kts | 277° |
| 2026-04-20 18:05 | 60.48901 | -145.46194 | 50 ft | 53 kts | 295° |
| 2026-04-20 18:05 | 60.49170 | -145.47403 | 51 ft | 133 kts | 294° |
| 2026-04-20 18:06 | 60.49612 | -145.49426 | 402 ft | 166 kts | 291° |
| 2026-04-20 18:06 | 60.50047 | -145.51500 | 1487 ft | 151 kts | 291° |
| 2026-04-20 18:06 | 60.50377 | -145.53498 | 2577 ft | 151 kts | 270° |
| 2026-04-20 18:06 | 60.49994 | -145.55586 | 3041 ft | 178 kts | 222° |
| 2026-04-20 18:07 | 60.48837 | -145.56569 | 2958 ft | 193 kts | 173° |
| 2026-04-20 18:07 | 60.47509 | -145.55925 | 2964 ft | 212 kts | 159° |
| 2026-04-20 18:07 | 60.46293 | -145.53967 | 2949 ft | 236 kts | 123° |
| 2026-04-20 18:07 | 60.45668 | -145.50850 | 2963 ft | 242 kts | 109° |
| 2026-04-20 18:08 | 60.45153 | -145.47510 | 3140 ft | 259 kts | 109° |
| 2026-04-20 18:08 | 60.44593 | -145.43975 | 4205 ft | 265 kts | 110° |
| 2026-04-20 18:08 | 60.43999 | -145.40416 | 5428 ft | 268 kts | 111° |
| 2026-04-20 18:08 | 60.43369 | -145.36822 | 6535 ft | 274 kts | 112° |
| 2026-04-20 18:09 | 60.42702 | -145.33155 | 7520 ft | 281 kts | 112° |
| 2026-04-20 18:09 | 60.42001 | -145.29411 | 8517 ft | 288 kts | 113° |
| 2026-04-20 18:09 | 60.41282 | -145.25646 | 9527 ft | 293 kts | 114° |
| 2026-04-20 18:09 | 60.40529 | -145.21764 | 10448 ft | 299 kts | 114° |
| 2026-04-20 18:10 | 60.39755 | -145.17810 | 11316 ft | 306 kts | 114° |
| 2026-04-20 18:10 | 60.38958 | -145.13775 | 12187 ft | 312 kts | 114° |
| 2026-04-20 18:10 | 60.38139 | -145.09656 | 13059 ft | 319 kts | 114° |
| 2026-04-20 18:10 | 60.37302 | -145.05462 | 13915 ft | 325 kts | 114° |
| 2026-04-20 18:11 | 60.36446 | -145.01189 | 14709 ft | 330 kts | 114° |
| 2026-04-20 18:11 | 60.35577 | -144.96860 | 15542 ft | 335 kts | 115° |
| 2026-04-20 18:11 | 60.34693 | -144.92471 | 16356 ft | 340 kts | 115° |
| 2026-04-20 18:11 | 60.33805 | -144.88072 | 17170 ft | 346 kts | 115° |
| 2026-04-20 18:12 | 60.32887 | -144.83540 | 17991 ft | 352 kts | 115° |
| 2026-04-20 18:12 | 60.31951 | -144.78929 | 18737 ft | 358 kts | 115° |
| 2026-04-20 18:12 | 60.31001 | -144.74256 | 19489 ft | 362 kts | 115° |
| 2026-04-20 18:12 | 60.30037 | -144.69527 | 20255 ft | 367 kts | 115° |
| 2026-04-20 18:13 | 60.29059 | -144.64740 | 21009 ft | 372 kts | 115° |
| 2026-04-20 18:13 | 60.28066 | -144.59890 | 21766 ft | 377 kts | 115° |
| 2026-04-20 18:13 | 60.27059 | -144.54982 | 22522 ft | 382 kts | 115° |
| 2026-04-20 18:13 | 60.26046 | -144.50066 | 23264 ft | 387 kts | 116° |
| 2026-04-20 18:14 | 60.25004 | -144.45028 | 23901 ft | 392 kts | 116° |
| 2026-04-20 18:14 | 60.23954 | -144.39940 | 24460 ft | 398 kts | 116° |
| 2026-04-20 18:14 | 60.22858 | -144.34653 | 24325 ft | 420 kts | 116° |
| 2026-04-20 18:14 | 60.21708 | -144.29116 | 24284 ft | 438 kts | 116° |
| 2026-04-20 18:15 | 60.20512 | -144.23367 | 24275 ft | 453 kts | 115° |
| 2026-04-20 18:15 | 60.19273 | -144.17435 | 24250 ft | 465 kts | 116° |
| 2026-04-20 18:15 | 60.18101 | -144.11348 | 24239 ft | 468 kts | 110° |
| 2026-04-20 18:15 | 60.17192 | -144.05075 | 24270 ft | 470 kts | 107° |
| 2026-04-20 18:16 | 60.16381 | -143.98751 | 24563 ft | 477 kts | 106° |
| 2026-04-20 18:16 | 60.15585 | -143.92297 | 24951 ft | 478 kts | 106° |
| 2026-04-20 18:16 | 60.14776 | -143.85779 | 24923 ft | 484 kts | 106° |
| 2026-04-20 18:16 | 60.13936 | -143.79164 | 24939 ft | 494 kts | 106° |
| 2026-04-20 18:17 | 60.13060 | -143.72442 | 24932 ft | 501 kts | 107° |
| 2026-04-20 18:17 | 60.12161 | -143.65671 | 24935 ft | 503 kts | 107° |
| 2026-04-20 18:17 | 60.11252 | -143.58909 | 24920 ft | 502 kts | 107° |
| 2026-04-20 18:17 | 60.10338 | -143.52163 | 24927 ft | 501 kts | 107° |
| 2026-04-20 18:18 | 60.09419 | -143.45432 | 24928 ft | 501 kts | 107° |
| 2026-04-20 18:18 | 60.08510 | -143.38796 | 24929 ft | 500 kts | 107° |
| 2026-04-20 18:18 | 60.07587 | -143.32088 | 24927 ft | 499 kts | 107° |
| 2026-04-20 18:18 | 60.06662 | -143.25392 | 24936 ft | 499 kts | 107° |
| 2026-04-20 18:19 | 60.05734 | -143.18694 | 24933 ft | 499 kts | 107° |
| 2026-04-20 18:19 | 60.04804 | -143.12007 | 24938 ft | 499 kts | 108° |
| 2026-04-20 18:19 | 60.03871 | -143.05323 | 24942 ft | 499 kts | 108° |
| 2026-04-20 18:19 | 60.02936 | -142.98652 | 24923 ft | 499 kts | 108° |
| 2026-04-20 18:20 | 60.01995 | -142.91974 | 24942 ft | 499 kts | 108° |
| 2026-04-20 18:20 | 60.01049 | -142.85287 | 24944 ft | 500 kts | 108° |
| 2026-04-20 18:20 | 60.00100 | -142.78598 | 24942 ft | 501 kts | 108° |
| 2026-04-20 18:20 | 59.99157 | -142.71988 | 24940 ft | 502 kts | 108° |
| 2026-04-20 18:21 | 59.98199 | -142.65294 | 24943 ft | 502 kts | 108° |
| 2026-04-20 18:21 | 59.97235 | -142.58587 | 24942 ft | 502 kts | 108° |
| 2026-04-20 18:21 | 59.96268 | -142.51891 | 24944 ft | 502 kts | 108° |
| 2026-04-20 18:21 | 59.95300 | -142.45211 | 24936 ft | 502 kts | 108° |
| 2026-04-20 18:22 | 59.94329 | -142.38533 | 24931 ft | 501 kts | 108° |
| 2026-04-20 18:22 | 59.93352 | -142.31847 | 24928 ft | 501 kts | 109° |
| 2026-04-20 18:22 | 59.92374 | -142.25179 | 24941 ft | 502 kts | 109° |
| 2026-04-20 18:22 | 59.91390 | -142.18505 | 24948 ft | 503 kts | 109° |
| 2026-04-20 18:23 | 59.90414 | -142.11905 | 24954 ft | 503 kts | 109° |
| 2026-04-20 18:23 | 59.89422 | -142.05222 | 24954 ft | 504 kts | 109° |
| 2026-04-20 18:23 | 59.88424 | -141.98528 | 24949 ft | 504 kts | 109° |
| 2026-04-20 18:23 | 59.87423 | -141.91835 | 24949 ft | 504 kts | 109° |
| 2026-04-20 18:24 | 59.86418 | -141.85149 | 24955 ft | 504 kts | 109° |
| 2026-04-20 18:24 | 59.85410 | -141.78462 | 24952 ft | 504 kts | 109° |
| 2026-04-20 18:24 | 59.84399 | -141.71789 | 24953 ft | 504 kts | 109° |
| 2026-04-20 18:24 | 59.83399 | -141.65210 | 24937 ft | 504 kts | 109° |
| 2026-04-20 18:25 | 59.82381 | -141.58543 | 24946 ft | 504 kts | 110° |
| 2026-04-20 18:25 | 59.81360 | -141.51877 | 24950 ft | 505 kts | 110° |
| 2026-04-20 18:25 | 59.80333 | -141.45202 | 24954 ft | 505 kts | 110° |
| 2026-04-20 18:25 | 59.79302 | -141.38529 | 24951 ft | 506 kts | 110° |
| 2026-04-20 18:26 | 59.78266 | -141.31845 | 24952 ft | 506 kts | 110° |
| 2026-04-20 18:26 | 59.77227 | -141.25171 | 24950 ft | 506 kts | 110° |
| 2026-04-20 18:26 | 59.76185 | -141.18500 | 24952 ft | 506 kts | 110° |
| 2026-04-20 18:26 | 59.75139 | -141.11830 | 24953 ft | 506 kts | 110° |
| 2026-04-20 18:27 | 59.74091 | -141.05174 | 24914 ft | 506 kts | 110° |
| 2026-04-20 18:27 | 59.73053 | -140.98606 | 24942 ft | 506 kts | 110° |
| 2026-04-20 18:27 | 59.72001 | -140.91974 | 24971 ft | 499 kts | 110° |
| 2026-04-20 18:27 | 59.70980 | -140.85539 | 24861 ft | 481 kts | 110° |
| 2026-04-20 18:28 | 59.69993 | -140.79341 | 24754 ft | 463 kts | 111° |
| 2026-04-20 18:28 | 59.69037 | -140.73377 | 24582 ft | 448 kts | 111° |
| 2026-04-20 18:28 | 59.68100 | -140.67554 | 24142 ft | 441 kts | 111° |
| 2026-04-20 18:28 | 59.67166 | -140.61783 | 23541 ft | 440 kts | 111° |
| 2026-04-20 18:29 | 59.66230 | -140.56015 | 22868 ft | 439 kts | 111° |
| 2026-04-20 18:29 | 59.65318 | -140.50373 | 22316 ft | 434 kts | 111° |
| 2026-04-20 18:29 | 59.64404 | -140.44716 | 21785 ft | 429 kts | 111° |
| 2026-04-20 18:29 | 59.63499 | -140.39126 | 21203 ft | 426 kts | 111° |
| 2026-04-20 18:30 | 59.62595 | -140.33563 | 20591 ft | 424 kts | 111° |
| 2026-04-20 18:30 | 59.61694 | -140.28037 | 20041 ft | 421 kts | 111° |
| 2026-04-20 18:30 | 59.60800 | -140.22565 | 19542 ft | 417 kts | 111° |
| 2026-04-20 18:30 | 59.59910 | -140.17148 | 19029 ft | 413 kts | 111° |
| 2026-04-20 18:31 | 59.59021 | -140.11782 | 18628 ft | 407 kts | 111° |
| 2026-04-20 18:31 | 59.58164 | -140.06629 | 18516 ft | 384 kts | 111° |
| 2026-04-20 18:31 | 59.57361 | -140.01812 | 18370 ft | 365 kts | 112° |
| 2026-04-20 18:31 | 59.56586 | -139.97180 | 18224 ft | 347 kts | 112° |
| 2026-04-20 18:32 | 59.55784 | -139.92765 | 17789 ft | 336 kts | 123° |
| 2026-04-20 18:32 | 59.54390 | -139.89268 | 17228 ft | 319 kts | 146° |
| 2026-04-20 18:32 | 59.52739 | -139.86406 | 16716 ft | 313 kts | 149° |
| 2026-04-20 18:32 | 59.50925 | -139.84258 | 16163 ft | 299 kts | 164° |
| 2026-04-20 18:33 | 59.49028 | -139.82675 | 15623 ft | 294 kts | 166° |
| 2026-04-20 18:33 | 59.47125 | -139.81185 | 15073 ft | 293 kts | 167° |
| 2026-04-20 18:33 | 59.45260 | -139.79758 | 14612 ft | 290 kts | 167° |
| 2026-04-20 18:33 | 59.43390 | -139.78354 | 14154 ft | 286 kts | 167° |
| 2026-04-20 18:34 | 59.41533 | -139.76985 | 13654 ft | 284 kts | 167° |
| 2026-04-20 18:34 | 59.39689 | -139.75652 | 13108 ft | 281 kts | 167° |
| 2026-04-20 18:34 | 59.37884 | -139.74361 | 12867 ft | 268 kts | 167° |
| 2026-04-20 18:34 | 59.36182 | -139.73132 | 12648 ft | 256 kts | 167° |
| 2026-04-20 18:35 | 59.34525 | -139.71936 | 12228 ft | 253 kts | 167° |
| 2026-04-20 18:35 | 59.32897 | -139.70775 | 11803 ft | 251 kts | 167° |
| 2026-04-20 18:35 | 59.31261 | -139.69624 | 11373 ft | 249 kts | 167° |
| 2026-04-20 18:35 | 59.29632 | -139.68495 | 10957 ft | 247 kts | 167° |
| 2026-04-20 18:36 | 59.28016 | -139.67393 | 10541 ft | 245 kts | 167° |
| 2026-04-20 18:36 | 59.26407 | -139.66313 | 10124 ft | 244 kts | 167° |
| 2026-04-20 18:36 | 59.24812 | -139.65222 | 9669 ft | 244 kts | 161° |
| 2026-04-20 18:36 | 59.23494 | -139.63035 | 9123 ft | 258 kts | 128° |
| 2026-04-20 18:37 | 59.22502 | -139.60141 | 8740 ft | 256 kts | 127° |
| 2026-04-20 18:37 | 59.21530 | -139.57292 | 8350 ft | 255 kts | 127° |
| 2026-04-20 18:37 | 59.20551 | -139.54421 | 7945 ft | 254 kts | 127° |
| 2026-04-20 18:37 | 59.19855 | -139.51285 | 7489 ft | 256 kts | 95° |
| 2026-04-20 18:38 | 59.20142 | -139.47933 | 7182 ft | 248 kts | 67° |
| 2026-04-20 18:38 | 59.20730 | -139.44802 | 6814 ft | 245 kts | 67° |
| 2026-04-20 18:38 | 59.21317 | -139.41667 | 6375 ft | 246 kts | 67° |
| 2026-04-20 18:38 | 59.21899 | -139.38545 | 5903 ft | 245 kts | 67° |
| 2026-04-20 18:39 | 59.22482 | -139.35424 | 5419 ft | 244 kts | 67° |
| 2026-04-20 18:39 | 59.23061 | -139.32331 | 4988 ft | 242 kts | 67° |
| 2026-04-20 18:39 | 59.23638 | -139.29253 | 4525 ft | 241 kts | 67° |
| 2026-04-20 18:39 | 59.24212 | -139.26245 | 4087 ft | 238 kts | 63° |
| 2026-04-20 18:40 | 59.25256 | -139.23903 | 3598 ft | 226 kts | 21° |
| 2026-04-20 18:40 | 59.26709 | -139.23487 | 3164 ft | 207 kts | 340° |
| 2026-04-20 18:40 | 59.27970 | -139.24658 | 2736 ft | 199 kts | 326° |
| 2026-04-20 18:40 | 59.29184 | -139.25943 | 2543 ft | 198 kts | 326° |
| 2026-04-20 18:41 | 59.30380 | -139.27305 | 2508 ft | 198 kts | 317° |
| 2026-04-20 18:41 | 59.31389 | -139.29085 | 2505 ft | 196 kts | 313° |
| 2026-04-20 18:41 | 59.32408 | -139.30877 | 2502 ft | 198 kts | 314° |
| 2026-04-20 18:41 | 59.33446 | -139.32661 | 2520 ft | 199 kts | 314° |
| 2026-04-20 18:42 | 59.34476 | -139.34414 | 2508 ft | 198 kts | 315° |
| 2026-04-20 18:42 | 59.35517 | -139.36177 | 2428 ft | 196 kts | 314° |
| 2026-04-20 18:42 | 59.36534 | -139.37906 | 2054 ft | 193 kts | 313° |
| 2026-04-20 18:42 | 59.37498 | -139.39740 | 1613 ft | 195 kts | 310° |
| 2026-04-20 18:43 | 59.38463 | -139.41631 | 1542 ft | 200 kts | 310° |
| 2026-04-20 18:43 | 59.39448 | -139.43557 | 1508 ft | 199 kts | 310° |
| 2026-04-20 18:43 | 59.40423 | -139.45461 | 1505 ft | 197 kts | 311° |
| 2026-04-20 18:43 | 59.41377 | -139.47324 | 1497 ft | 196 kts | 311° |
| 2026-04-20 18:44 | 59.42336 | -139.49196 | 1499 ft | 193 kts | 310° |
| 2026-04-20 18:44 | 59.43281 | -139.51042 | 1504 ft | 192 kts | 311° |
| 2026-04-20 18:44 | 59.44238 | -139.52899 | 1543 ft | 188 kts | 313° |
| 2026-04-20 18:44 | 59.45148 | -139.54529 | 1479 ft | 167 kts | 309° |
| 2026-04-20 18:45 | 59.45863 | -139.56197 | 1164 ft | 153 kts | 305° |
| 2026-04-20 18:45 | 59.46579 | -139.57511 | 1041 ft | 132 kts | 310° |
| 2026-04-20 18:45 | 59.47202 | -139.58747 | 803 ft | 125 kts | 308° |
| 2026-04-20 18:45 | 59.47807 | -139.59948 | 628 ft | 126 kts | 309° |
| 2026-04-20 18:46 | 59.48445 | -139.61145 | 471 ft | 130 kts | 311° |
| 2026-04-20 18:46 | 59.49071 | -139.62433 | 265 ft | 132 kts | 311° |
| 2026-04-20 18:46 | 59.49746 | -139.63722 | 56 ft | 137 kts | 311° |
| 2026-04-20 18:46 | 59.50352 | -139.64920 | 44 ft | 104 kts | 316° |
| 2026-04-20 18:47 | 59.50755 | -139.65710 | 44 ft | 63 kts | 315° |
| 2026-04-20 18:47 | 59.50937 | -139.66064 | 46 ft | 21 kts | 314° |
| 2026-04-20 18:47 | 59.50994 | -139.66199 | 45 ft | 8 kts | 284° |
| 2026-04-20 18:47 | 59.50967 | -139.66281 | 46 ft | 6 kts | 224° |
| 2026-04-20 18:48 | 59.50939 | -139.66335 | 47 ft | 6 kts | 224° |
| 2026-04-20 18:48 | 59.50911 | -139.66388 | 47 ft | 6 kts | 224° |
| 2026-04-20 18:48 | 59.50883 | -139.66440 | 46 ft | 5 kts | 226° |
| 2026-04-20 18:48 | 59.50857 | -139.66493 | 45 ft | 5 kts | 226° |
| 2026-04-20 18:49 | 59.50832 | -139.66545 | 48 ft | 5 kts | 226° |
| 2026-04-20 18:49 | 59.50807 | -139.66597 | 48 ft | 5 kts | 226° |
| 2026-04-20 18:49 | 59.50782 | -139.66649 | 47 ft | 5 kts | 226° |
| 2026-04-20 18:49 | 59.50772 | -139.66689 | 46 ft | 3 kts | 285° |
| 2026-04-20 18:50 | 59.50785 | -139.66714 | 48 ft | 3 kts | 325° |
| 2026-04-20 18:50 | 59.50800 | -139.66732 | 47 ft | 1 kts | 329° |
| 2026-04-20 18:50 | 59.50801 | -139.66734 | 47 ft | 0 kts | 329° |